Isle of Rum, United Kingdom
Current Conditions -  °F | °C
As of 11:50 AM on Saturday 25 Oct 2014 (Local Time) from EGPU Reporting Station
Rain Showers Rain Showers  
Wind Chill: 54°   Ceiling: Unl
Heat Index: 54°   Visibility: 6mi
Dew Point: 46°   Wind: 30mph
Humidity: 77%   Direction: 240°WSW
Pressure: 29.53"   Gusts: 43mph
Location:  57.01°N, 6.28°W
Report Text: EGPU 251050Z 24026G37KT 9999 VCSH FEW025 12/08 Q1000
Loading
Personal Weather Stations






























Interactive Weather Map
Tropical Storm Tracking
New forecast layout! Learn more

10-Day Weather Forecast

Advertisements
Track Severe Weather on mobile